Time;durP1;ratioP1;P1;durP2;ratioP2;P2;SDS_P1;SDS_P2;PMS_P1;PMS_P2;Temp;Humidity;BMP_temperature;BMP_pressure;BME280_temperature;BME280_humidity;BME280_pressure;Samples;Min_cycle;Max_cycle;Signal;HPM_P1;HPM_P2
2021/12/22 04:42:05;;;;;;;18.30;9.20;;;;;;;-3.03;84.52;101590.81;6570374;26;884569;-79
2021/12/22 04:45:09;;;;;;;14.95;9.07;;;;;;;-3.02;83.69;101593.34;6691169;26;33857;-79
2021/12/22 04:48:11;;;;;;;15.43;9.35;;;;;;;-3.00;82.97;101591.53;6692359;26;33978;-79
2021/12/22 04:51:24;;;;;;;18.02;9.43;;;;;;;-3.05;82.83;101595.25;6692903;26;34961;-79
2021/12/22 04:57:32;;;;;;;17.77;10.20;;;;;;;-3.06;83.87;101591.78;6694796;26;34004;-79
2021/12/22 05:00:37;;;;;;;18.02;9.63;;;;;;;-3.06;84.10;101597.03;6701130;26;33923;-80
2021/12/22 05:03:41;;;;;;;18.65;10.00;;;;;;;-3.06;84.39;101598.81;6693091;26;34431;-80
2021/12/22 05:06:47;;;;;;;16.73;9.90;;;;;;;-3.03;83.77;101599.56;6689577;26;35031;-80
2021/12/22 05:09:50;;;;;;;17.80;9.63;;;;;;;-2.94;82.71;101593.06;6689147;26;34188;-79
2021/12/22 05:12:53;;;;;;;15.60;9.32;;;;;;;-2.97;83.50;101601.09;6688808;26;35223;-80
2021/12/22 05:15:56;;;;;;;13.23;8.00;;;;;;;-2.93;83.98;101604.44;6689373;26;34310;-82
2021/12/22 05:19:11;;;;;;;15.23;8.75;;;;;;;-2.98;82.52;101604.66;6689888;26;34039;-83
2021/12/22 05:22:14;;;;;;;17.12;8.23;;;;;;;-2.93;82.07;101599.19;6689931;26;34716;-80
2021/12/22 05:25:17;;;;;;;13.75;8.70;;;;;;;-2.91;82.01;101598.22;6689658;26;33857;-80
2021/12/22 05:28:20;;;;;;;14.13;8.23;;;;;;;-2.94;81.36;101594.84;6689901;26;34000;-80
2021/12/22 05:31:23;;;;;;;13.80;7.53;;;;;;;-2.88;82.15;101602.50;6689752;26;34091;-80
2021/12/22 05:34:26;;;;;;;15.88;8.75;;;;;;;-2.85;81.23;101597.09;6700069;26;33389;-80
2021/12/22 05:37:29;;;;;;;19.77;8.38;;;;;;;-2.92;81.43;101608.81;6697548;26;34148;-80
2021/12/22 05:40:32;;;;;;;16.55;9.27;;;;;;;-2.96;82.20;101606.28;6699651;26;33524;-80
2021/12/22 05:43:35;;;;;;;16.65;8.93;;;;;;;-2.89;82.70;101617.47;6689104;26;34719;-80
2021/12/22 05:46:37;;;;;;;14.27;9.27;;;;;;;-2.81;82.04;101619.75;6689100;26;34555;-80
2021/12/22 05:49:42;;;;;;;17.62;9.18;;;;;;;-2.90;81.50;101622.78;6690168;26;33540;-80
2021/12/22 05:52:46;;;;;;;17.37;9.90;;;;;;;-2.97;81.11;101615.12;6696535;26;33862;-80
2021/12/22 05:55:48;;;;;;;18.92;10.75;;;;;;;-2.98;83.38;101623.94;6700708;26;33413;-80
2021/12/22 05:58:51;;;;;;;15.45;8.77;;;;;;;-2.96;82.52;101623.87;6693745;26;34028;-80
2021/12/22 06:01:54;;;;;;;19.20;9.82;;;;;;;-2.90;82.33;101626.25;6690928;26;34581;-80
2021/12/22 06:04:57;;;;;;;19.27;10.68;;;;;;;-2.89;82.18;101630.63;6690921;26;34612;-81
2021/12/22 06:07:59;;;;;;;20.23;10.35;;;;;;;-2.90;82.91;101630.69;6691287;26;33822;-81
2021/12/22 06:11:05;;;;;;;17.45;9.80;;;;;;;-2.87;83.00;101638.47;6691187;26;33804;-81
2021/12/22 06:14:11;;;;;;;22.70;10.68;;;;;;;-2.85;82.83;101628.72;6696143;26;33508;-80
2021/12/22 06:17:14;;;;;;;18.05;10.02;;;;;;;-2.85;83.73;101641.91;6691609;26;33490;-80
2021/12/22 06:20:17;;;;;;;19.02;10.27;;;;;;;-2.85;83.98;101655.06;6692325;26;34122;-80
2021/12/22 06:23:20;;;;;;;19.48;10.82;;;;;;;-2.62;83.46;101651.53;6692145;26;34611;-81
2021/12/22 06:26:23;;;;;;;18.37;10.38;;;;;;;-2.65;83.16;101659.56;6692042;26;33820;-80
2021/12/22 06:29:26;;;;;;;18.75;10.35;;;;;;;-2.73;84.33;101659.84;6692271;26;33956;-81
2021/12/22 06:32:29;;;;;;;19.92;11.23;;;;;;;-2.70;83.23;101664.16;6692928;26;32415;-80
2021/12/22 06:35:32;;;;;;;20.17;11.20;;;;;;;-2.63;83.67;101669.12;6703210;26;33966;-80
2021/12/22 06:38:35;;;;;;;21.10;11.15;;;;;;;-2.74;83.76;101671.34;6710643;26;35059;-80
2021/12/22 06:41:38;;;;;;;22.87;11.02;;;;;;;-2.73;83.58;101688.84;6691614;26;34678;-80
2021/12/22 06:44:41;;;;;;;18.90;11.05;;;;;;;-2.68;82.87;101688.69;6690250;26;34489;-79
2021/12/22 06:47:44;;;;;;;18.58;10.68;;;;;;;-2.64;83.01;101688.47;6694397;26;34206;-79
2021/12/22 06:50:46;;;;;;;19.25;11.25;;;;;;;-2.58;83.17;101690.03;6697283;26;34004;-80
2021/12/22 06:53:50;;;;;;;25.33;12.40;;;;;;;-2.64;83.23;101688.47;6702191;26;33850;-80
2021/12/22 06:56:52;;;;;;;18.35;10.65;;;;;;;-2.63;83.79;101694.59;6693152;26;35084;-80
2021/12/22 06:59:59;;;;;;;18.92;10.45;;;;;;;-2.59;81.57;101693.59;6693781;26;34285;-81
2021/12/22 07:03:08;;;;;;;21.48;11.45;;;;;;;-2.56;81.75;101689.03;6690907;26;34513;-81
2021/12/22 07:06:12;;;;;;;21.77;12.05;;;;;;;-2.55;82.81;101690.75;6690539;26;33907;-81
2021/12/22 07:09:15;;;;;;;21.58;11.63;;;;;;;-2.55;82.40;101688.09;6691469;26;34310;-81
2021/12/22 07:12:18;;;;;;;17.52;10.05;;;;;;;-2.57;83.10;101692.59;6690142;26;33328;-82
2021/12/22 07:15:21;;;;;;;20.60;10.90;;;;;;;-2.59;82.60;101697.06;6690980;26;33512;-81
2021/12/22 07:18:24;;;;;;;19.85;10.50;;;;;;;-2.54;82.20;101692.47;6690770;26;34011;-81
2021/12/22 07:21:27;;;;;;;19.17;10.95;;;;;;;-2.48;82.24;101701.06;6691682;26;33516;-80
2021/12/22 07:24:30;;;;;;;16.52;9.50;;;;;;;-2.42;81.83;101696.41;6690758;26;34366;-84
2021/12/22 07:27:33;;;;;;;17.02;9.77;;;;;;;-2.42;80.07;101699.03;6690631;26;34053;-84
2021/12/22 07:30:37;;;;;;;22.15;9.82;;;;;;;-2.38;80.01;101705.03;6691748;26;33565;-84
2021/12/22 07:34:00;;;;;;;20.58;10.50;;;;;;;-2.32;80.04;101710.06;6691497;26;34412;-82
2021/12/22 07:37:18;;;;;;;21.15;10.68;;;;;;;-2.35;80.23;101702.28;6703932;26;34524;-80
2021/12/22 07:40:20;;;;;;;19.37;11.40;;;;;;;-2.29;79.68;101713.44;6705049;26;32224;-80
2021/12/22 07:43:25;;;;;;;25.08;13.07;;;;;;;-2.24;80.40;101715.03;6692560;26;34437;-81
2021/12/22 07:46:27;;;;;;;21.17;13.00;;;;;;;-2.14;80.46;101711.94;6691787;26;34696;-80
2021/12/22 07:49:30;;;;;;;28.25;15.13;;;;;;;-2.17;80.05;101717.34;6698163;26;34794;-81
2021/12/22 07:52:34;;;;;;;24.25;13.07;;;;;;;-2.08;79.75;101718.75;6695885;26;33951;-80
2021/12/22 07:55:38;;;;;;;24.87;13.55;;;;;;;-2.06;79.16;101723.03;6690622;26;34456;-81
2021/12/22 07:58:42;;;;;;;24.20;13.57;;;;;;;-1.93;79.38;101728.69;6669377;26;33606;-80
2021/12/22 08:01:45;;;;;;;25.08;12.98;;;;;;;-1.76;78.65;101727.94;6689381;26;34295;-80
2021/12/22 08:04:48;;;;;;;19.37;11.00;;;;;;;-1.63;78.49;101738.84;6689302;26;34570;-81
2021/12/22 08:07:50;;;;;;;20.08;11.63;;;;;;;-1.54;77.30;101727.91;6688595;26;33602;-81
2021/12/22 08:10:53;;;;;;;21.55;12.27;;;;;;;-1.51;77.83;101743.59;6688314;26;33659;-80
2021/12/22 08:13:56;;;;;;;23.20;11.88;;;;;;;-1.55;77.67;101735.88;6689382;26;33846;-81
2021/12/22 08:16:59;;;;;;;21.15;12.02;;;;;;;-1.42;77.50;101737.06;6689414;26;33925;-81
2021/12/22 08:20:04;;;;;;;23.55;11.55;;;;;;;-1.30;76.55;101735.66;6688548;26;33557;-80
2021/12/22 08:23:10;;;;;;;20.02;10.60;;;;;;;-1.36;76.75;101736.78;6689617;26;33819;-81
2021/12/22 08:26:13;;;;;;;20.90;10.80;;;;;;;-1.44;76.26;101741.53;6689279;26;33952;-81
2021/12/22 08:29:16;;;;;;;23.75;11.30;;;;;;;-1.35;76.12;101738.50;6689105;26;33613;-81
2021/12/22 08:32:19;;;;;;;20.45;10.68;;;;;;;-1.34;75.23;101755.22;6702607;26;33999;-80
2021/12/22 08:35:25;;;;;;;21.42;10.77;;;;;;;-1.30;74.55;101749.72;6698447;26;35230;-81
2021/12/22 08:41:50;;;;;;;20.90;9.82;;;;;;;-1.22;73.18;101752.03;6694955;26;34291;-81
2021/12/22 08:44:52;;;;;;;17.30;8.00;;;;;;;-1.11;72.68;101757.69;6642833;26;33546;-80
2021/12/22 08:47:55;;;;;;;27.13;11.02;;;;;;;-1.04;69.34;101756.50;6639089;26;33975;-80
2021/12/22 08:50:59;;;;;;;19.80;8.80;;;;;;;-0.94;66.96;101760.44;6638792;26;33788;-80
2021/12/22 08:54:02;;;;;;;16.35;8.27;;;;;;;-0.89;67.88;101762.00;6637102;26;33576;-80
2021/12/22 08:57:06;;;;;;;16.65;8.02;;;;;;;-0.97;66.42;101765.84;6633828;26;33570;-80
2021/12/22 09:00:10;;;;;;;13.93;7.95;;;;;;;-0.96;65.68;101762.28;6636529;26;33702;-84
2021/12/22 09:03:13;;;;;;;17.92;8.15;;;;;;;-0.88;66.12;101761.91;6632935;26;33922;-84
2021/12/22 09:06:17;;;;;;;16.12;8.63;;;;;;;-0.80;65.80;101762.44;6633659;26;34034;-84
2021/12/22 09:09:21;;;;;;;18.30;8.60;;;;;;;-0.61;64.96;101766.88;6634168;26;34128;-81
2021/12/22 09:12:26;;;;;;;13.90;7.78;;;;;;;-0.42;64.58;101772.16;6633819;26;33710;-81
2021/12/22 09:15:29;;;;;;;19.70;8.75;;;;;;;-0.39;64.36;101766.72;6634914;26;33896;-80
2021/12/22 09:18:34;;;;;;;19.50;8.63;;;;;;;-0.29;63.93;101768.00;6635184;26;34223;-80
2021/12/22 09:21:37;;;;;;;13.82;7.55;;;;;;;-0.29;63.96;101766.22;6643944;26;33886;-80
2021/12/22 09:24:40;;;;;;;19.10;8.30;;;;;;;-0.16;61.80;101762.97;6655287;26;35338;-81
2021/12/22 09:27:42;;;;;;;14.05;8.55;;;;;;;-0.13;63.04;101768.13;6638610;26;35341;-80
2021/12/22 09:30:46;;;;;;;15.50;8.30;;;;;;;-0.32;61.38;101768.13;6638043;26;33666;-80
2021/12/22 09:33:48;;;;;;;16.83;8.75;;;;;;;-0.08;60.65;101763.47;6647657;26;34043;-80
2021/12/22 09:36:51;;;;;;;19.20;9.00;;;;;;;-0.07;61.25;101759.88;6635413;26;34519;-80
2021/12/22 09:39:54;;;;;;;13.98;8.63;;;;;;;-0.03;62.09;101764.06;6634610;26;33872;-80
2021/12/22 09:42:57;;;;;;;15.13;8.40;;;;;;;-0.10;61.83;101767.97;6654052;26;33619;-80
2021/12/22 09:46:09;;;;;;;19.55;9.25;;;;;;;-0.08;61.82;101769.59;6694629;26;34064;-80
2021/12/22 09:49:24;;;;;;;16.25;9.02;;;;;;;-0.07;61.43;101763.38;6700910;26;34067;-80
2021/12/22 09:52:27;;;;;;;15.10;8.38;;;;;;;0.14;61.15;101760.59;6690231;26;34930;-80
2021/12/22 09:55:34;;;;;;;18.70;9.00;;;;;;;0.22;59.90;101767.22;6688841;26;34520;-80
2021/12/22 09:58:40;;;;;;;19.98;8.60;;;;;;;0.29;60.49;101757.16;6689736;26;34032;-80
2021/12/22 10:01:43;;;;;;;14.65;8.43;;;;;;;0.18;59.84;101755.06;6689818;26;33973;-80
2021/12/22 10:04:46;;;;;;;14.00;7.82;;;;;;;0.18;59.00;101759.53;6689701;26;34330;-80
2021/12/22 10:08:16;;;;;;;18.87;8.85;;;;;;;0.39;58.14;101745.19;6689748;26;34585;-79
2021/12/22 10:11:19;;;;;;;;;;;;;;;0.37;59.72;101746.19;6688590;26;33603;-80
2021/12/22 10:14:26;;;;;;;15.25;8.50;;;;;;;0.31;59.18;101751.81;6688330;26;34193;-79
2021/12/22 10:17:42;;;;;;;16.15;8.30;;;;;;;0.34;58.99;101754.28;6689509;26;33770;-80
2021/12/22 10:20:47;;;;;;;14.80;8.25;;;;;;;0.18;59.14;101752.44;6689610;26;34113;-80
2021/12/22 10:23:52;;;;;;;16.12;8.80;;;;;;;0.21;59.05;101752.28;6687228;26;34757;-83
2021/12/22 10:27:11;;;;;;;16.12;8.32;;;;;;;0.22;58.20;101748.69;6685953;26;33444;-80
2021/12/22 10:30:32;;;;;;;12.55;7.50;;;;;;;0.28;58.16;101751.97;6701497;26;34751;-79
2021/12/22 10:33:40;;;;;;;17.55;9.07;;;;;;;0.00;58.82;101748.06;6702026;26;34677;-80
2021/12/22 10:36:44;;;;;;;18.83;8.70;;;;;;;-0.02;58.92;101747.28;6688025;26;35227;-80
2021/12/22 10:39:47;;;;;;;13.45;8.30;;;;;;;0.10;60.01;101744.00;6690267;26;34713;-80
2021/12/22 10:42:50;;;;;;;15.85;8.23;;;;;;;0.18;59.30;101739.19;6689925;26;34185;-81
2021/12/22 10:45:56;;;;;;;15.43;7.78;;;;;;;0.26;57.98;101741.44;6690594;26;34366;-81
2021/12/22 10:49:17;;;;;;;14.00;7.85;;;;;;;0.54;56.27;101732.06;6689467;26;33823;-80
2021/12/22 10:52:24;;;;;;;12.50;7.78;;;;;;;0.58;56.61;101728.31;6690469;26;34222;-80
2021/12/22 10:55:46;;;;;;;17.85;9.30;;;;;;;0.29;55.67;101730.69;6690026;26;34640;-80
2021/12/22 10:59:01;;;;;;;13.60;7.47;;;;;;;0.38;58.34;101732.00;6692479;26;34174;-80
2021/12/22 11:02:08;;;;;;;14.05;7.65;;;;;;;0.54;55.53;101724.13;6692368;26;33730;-80
2021/12/22 11:05:27;;;;;;;19.45;9.05;;;;;;;0.58;54.57;101728.31;6695122;26;34461;-80
2021/12/22 11:08:29;;;;;;;17.95;9.98;;;;;;;0.42;56.27;101722.97;6692616;26;33669;-80
2021/12/22 11:11:36;;;;;;;14.93;8.85;;;;;;;0.52;56.65;101724.19;6692908;26;34842;-80
2021/12/22 11:14:42;;;;;;;15.43;9.02;;;;;;;0.65;56.69;101719.13;6690068;26;34708;-84
2021/12/22 11:17:44;;;;;;;15.05;8.32;;;;;;;0.71;57.13;101720.59;6689234;26;34813;-84
2021/12/22 11:21:09;;;;;;;18.02;9.38;;;;;;;0.65;56.91;101716.47;6689509;26;33687;-84
2021/12/22 11:24:13;;;;;;;15.88;9.57;;;;;;;0.66;58.13;101710.22;6669563;26;33851;-81
2021/12/22 11:27:22;;;;;;;16.70;9.25;;;;;;;0.74;57.05;101715.13;6689908;26;33847;-81
2021/12/22 11:30:26;;;;;;;18.48;9.20;;;;;;;0.71;57.07;101704.69;6690052;26;33914;-80
2021/12/22 11:33:31;;;;;;;16.85;8.65;;;;;;;0.96;57.72;101704.22;6689808;26;33562;-80
2021/12/22 11:36:35;;;;;;;13.15;8.35;;;;;;;1.17;56.57;101699.53;6689620;26;34085;-81
2021/12/22 11:39:38;;;;;;;16.33;8.50;;;;;;;1.40;55.66;101700.91;6699972;26;33751;-81
2021/12/22 11:42:41;;;;;;;16.92;8.52;;;;;;;1.38;55.28;101702.81;6688997;26;33988;-81
2021/12/22 11:45:45;;;;;;;13.45;7.65;;;;;;;1.28;56.43;101697.16;6689317;26;34128;-81
2021/12/22 11:48:49;;;;;;;13.05;7.87;;;;;;;1.17;55.72;101694.22;6689030;26;34052;-80
2021/12/22 11:51:52;;;;;;;18.30;9.43;;;;;;;0.80;56.38;101688.28;6698055;26;34319;-80
2021/12/22 11:55:17;;;;;;;13.13;8.70;;;;;;;0.75;57.00;101693.84;6695455;26;34141;-81
2021/12/22 11:58:24;;;;;;;19.45;9.00;;;;;;;0.77;57.79;101691.97;6689875;26;33965;-80
2021/12/22 12:01:27;;;;;;;15.65;8.27;;;;;;;0.88;56.81;101686.94;6690579;26;33792;-81
2021/12/22 12:04:34;;;;;;;19.33;9.27;;;;;;;0.84;57.18;101684.53;6691501;26;33487;-81
2021/12/22 12:07:48;;;;;;;17.67;8.35;;;;;;;0.87;56.26;101682.56;6692088;26;34485;-81
2021/12/22 12:10:54;;;;;;;63.15;31.40;;;;;;;0.58;56.11;101683.28;6691037;26;33820;-80
2021/12/22 12:14:04;;;;;;;21.45;10.73;;;;;;;0.47;57.28;101685.63;6691081;26;34571;-80
2021/12/22 12:24:30;;;;;;;14.77;8.70;;;;;;;-0.16;59.00;101689.72;6708803;26;35290;-80
2021/12/22 12:27:53;;;;;;;20.73;9.48;;;;;;;0.17;58.12;101679.19;6693524;26;34509;-81
2021/12/22 12:30:58;;;;;;;14.45;8.57;;;;;;;0.92;56.06;101682.31;6689686;26;33507;-81
2021/12/22 12:34:23;;;;;;;15.05;7.85;;;;;;;1.65;54.25;101679.16;6689466;26;34551;-80
2021/12/22 12:38:03;;;;;;;15.93;9.35;;;;;;;3.13;49.68;101670.13;6689513;26;34688;-80
2021/12/22 12:41:15;;;;;;;17.30;9.32;;;;;;;4.87;46.22;101664.59;6689537;26;33513;-80
2021/12/22 12:44:27;;;;;;;16.65;9.75;;;;;;;6.49;42.43;101650.78;6689500;26;34339;-81
2021/12/22 12:47:29;;;;;;;15.43;9.60;;;;;;;7.89;39.21;101646.50;6689288;26;34713;-85
2021/12/22 12:50:32;;;;;;;18.75;10.05;;;;;;;9.11;36.29;101652.97;6689037;26;33874;-81
2021/12/22 12:53:51;;;;;;;17.00;10.05;;;;;;;8.77;36.49;101655.97;6688967;26;34277;-81
2021/12/22 12:56:57;;;;;;;19.25;10.20;;;;;;;9.36;35.24;101654.34;6688893;26;34012;-81
2021/12/22 13:00:05;;;;;;;17.12;10.02;;;;;;;7.62;37.95;101657.69;6689785;26;34598;-81
2021/12/22 13:03:13;;;;;;;19.83;10.07;;;;;;;6.78;39.73;101657.34;6694424;26;34372;-81
2021/12/22 13:06:16;;;;;;;18.42;10.98;;;;;;;5.74;42.50;101667.19;6691310;26;34065;-80
2021/12/22 13:09:26;;;;;;;17.87;10.50;;;;;;;5.22;43.38;101670.06;6693156;26;34658;-80
2021/12/22 13:12:47;;;;;;;19.27;10.70;;;;;;;3.92;46.46;101662.31;6698043;26;33831;-81
2021/12/22 13:15:50;;;;;;;23.33;11.27;;;;;;;3.12;49.31;101662.22;6703707;26;34216;-81
2021/12/22 13:18:52;;;;;;;20.77;12.02;;;;;;;2.44;51.66;101669.09;6689689;26;33941;-81
2021/12/22 13:21:56;;;;;;;21.17;12.13;;;;;;;2.24;52.77;101664.13;6688838;26;33761;-80
2021/12/22 13:25:15;;;;;;;21.87;12.25;;;;;;;1.63;54.40;101673.06;6688949;26;33954;-81
2021/12/22 13:28:30;;;;;;;20.77;11.43;;;;;;;1.64;55.80;101667.69;6688841;26;33663;-80
2021/12/22 13:31:33;;;;;;;21.48;12.23;;;;;;;1.58;55.55;101670.69;6689040;26;33588;-81
2021/12/22 13:34:44;;;;;;;20.05;10.15;;;;;;;1.32;56.43;101672.16;6690421;26;33962;-81
2021/12/22 13:37:50;;;;;;;23.10;12.05;;;;;;;1.19;57.25;101673.78;6698327;26;34756;-80
2021/12/22 13:41:10;;;;;;;19.92;11.43;;;;;;;1.09;57.23;101671.66;6689025;26;33942;-80
2021/12/22 13:44:12;;;;;;;21.17;11.93;;;;;;;0.87;57.71;101677.25;6688777;26;33653;-84
2021/12/22 13:47:15;;;;;;;23.25;11.38;;;;;;;0.80;58.90;101672.38;6688993;26;33556;-84
2021/12/22 13:50:19;;;;;;;20.95;11.25;;;;;;;0.71;59.18;101671.09;6689918;26;33848;-82
2021/12/22 13:53:24;;;;;;;18.92;10.70;;;;;;;0.48;60.27;101676.75;6697297;26;34225;-81
2021/12/22 13:56:31;;;;;;;21.45;11.68;;;;;;;0.46;59.67;101674.19;6694179;26;34459;-81
2021/12/22 13:59:37;;;;;;;22.15;11.40;;;;;;;0.31;62.18;101669.69;6688861;26;33619;-80
2021/12/22 14:02:39;;;;;;;25.55;12.00;;;;;;;0.36;61.56;101671.16;6689084;26;33885;-81
2021/12/22 14:06:03;;;;;;;20.98;11.45;;;;;;;0.18;61.78;101661.53;6688852;26;33928;-80
2021/12/22 14:09:07;;;;;;;23.95;12.00;;;;;;;0.06;62.47;101672.72;6688683;26;33529;-80
2021/12/22 14:12:33;;;;;;;22.00;11.52;;;;;;;0.14;63.58;101671.41;6690207;26;34670;-80
2021/12/22 14:15:38;;;;;;;22.92;12.00;;;;;;;0.03;63.42;101672.91;6690036;26;34740;-81
2021/12/22 14:18:41;;;;;;;23.60;11.23;;;;;;;-0.24;64.22;101660.97;6689296;26;33957;-81
2021/12/22 14:21:45;;;;;;;24.87;12.27;;;;;;;-0.41;65.28;101663.63;6690582;26;33622;-80
2021/12/22 14:25:09;;;;;;;21.80;12.18;;;;;;;-0.40;65.39;101670.63;6690064;26;33480;-80
2021/12/22 14:28:20;;;;;;;22.45;12.35;;;;;;;-0.37;65.17;101664.31;6689967;26;33608;-80
2021/12/22 14:31:23;;;;;;;21.87;12.27;;;;;;;-0.57;66.06;101668.78;6690179;26;34751;-81
2021/12/22 14:34:27;;;;;;;22.80;11.57;;;;;;;-0.60;66.46;101673.38;6690231;26;33900;-81
2021/12/22 14:37:31;;;;;;;24.75;11.82;;;;;;;-0.68;65.88;101674.59;6690044;26;34074;-80
2021/12/22 14:40:37;;;;;;;23.20;12.32;;;;;;;-0.80;66.13;101667.25;6689980;26;34786;-80
2021/12/22 14:43:47;;;;;;;21.25;11.70;;;;;;;-0.81;66.82;101676.12;6688950;26;33978;-81
2021/12/22 14:46:51;;;;;;;21.42;11.82;;;;;;;-0.85;66.59;101669.25;6670172;26;34179;-81
2021/12/22 14:49:55;;;;;;;22.62;12.27;;;;;;;-0.92;67.53;101678.41;6689934;26;33951;-84
2021/12/22 14:53:03;;;;;;;23.02;11.82;;;;;;;-1.01;67.33;101669.12;6690151;26;33518;-84
2021/12/22 14:56:07;;;;;;;22.45;12.00;;;;;;;-1.11;67.74;101664.31;6688850;26;33370;-81
2021/12/22 14:59:12;;;;;;;24.08;12.23;;;;;;;-1.10;67.75;101658.13;6690793;26;33489;-81
2021/12/22 15:02:15;;;;;;;24.65;11.85;;;;;;;-1.21;67.65;101666.53;6690578;26;33634;-81
2021/12/22 15:05:20;;;;;;;25.35;12.07;;;;;;;-1.30;68.07;101657.25;6692342;26;33400;-81
2021/12/22 15:08:24;;;;;;;23.10;12.52;;;;;;;-1.33;69.37;101665.31;6693348;26;33844;-81
2021/12/22 15:11:27;;;;;;;23.40;11.93;;;;;;;-1.43;69.42;101672.81;6696141;26;34243;-81
2021/12/22 15:14:30;;;;;;;26.48;12.73;;;;;;;-1.52;70.46;101667.06;6704761;26;34130;-80
2021/12/22 15:17:32;;;;;;;21.70;12.25;;;;;;;-1.57;70.43;101671.72;6711841;26;35372;-80
2021/12/22 15:20:35;;;;;;;23.58;12.98;;;;;;;-1.59;71.34;101674.41;6711650;26;34866;-81
2021/12/22 15:23:39;;;;;;;28.38;12.68;;;;;;;-1.65;71.09;101672.03;6712154;26;34787;-81
2021/12/22 15:26:42;;;;;;;24.23;12.05;;;;;;;-1.72;72.10;101673.25;6699033;26;35211;-80
2021/12/22 15:29:45;;;;;;;26.85;13.45;;;;;;;-1.80;72.88;101676.22;6690259;26;34181;-81
2021/12/22 15:32:48;;;;;;;29.60;13.40;;;;;;;-1.84;71.87;101669.38;6690291;26;34588;-81
2021/12/22 15:35:51;;;;;;;29.37;13.23;;;;;;;-1.88;73.17;101671.25;6692932;26;33989;-80
2021/12/22 15:38:54;;;;;;;24.67;12.98;;;;;;;-1.92;73.53;101669.69;6694006;26;33554;-80
2021/12/22 15:41:56;;;;;;;27.48;12.88;;;;;;;-1.95;73.25;101663.69;6698708;26;34887;-79
2021/12/22 15:44:59;;;;;;;25.45;13.23;;;;;;;-1.85;72.65;101662.34;6701237;26;33645;-80
2021/12/22 15:48:03;;;;;;;25.48;13.55;;;;;;;-1.85;73.09;101670.28;6704213;26;34136;-80
2021/12/22 15:51:06;;;;;;;21.60;12.82;;;;;;;-1.85;72.28;101670.28;6694813;26;34903;-80
2021/12/22 15:54:09;;;;;;;24.25;13.20;;;;;;;-1.91;73.08;101667.91;6695378;26;34057;-80
2021/12/22 15:57:12;;;;;;;23.58;13.18;;;;;;;-1.99;73.60;101675.28;6698010;26;34201;-81
2021/12/22 16:00:21;;;;;;;25.70;12.25;;;;;;;-1.93;72.66;101670.63;6690284;26;34577;-80
2021/12/22 16:03:24;;;;;;;27.10;13.48;;;;;;;-2.03;73.50;101684.25;6690215;26;33834;-80
2021/12/22 16:06:27;;;;;;;27.08;13.65;;;;;;;-2.13;73.86;101679.38;6694944;26;33947;-80
2021/12/22 16:09:30;;;;;;;23.80;12.98;;;;;;;-2.17;74.89;101685.69;6699285;26;35389;-79
2021/12/22 16:12:33;;;;;;;27.52;12.98;;;;;;;-2.22;74.62;101689.44;6690282;26;33627;-81
